Main page
METAR-TAF:

METAR-TAF

Airports :

Jeddah, Saudi Arabia

King Abdulaziz International Airport

latitude: 21-42N, longitude: 039-11E, elevation: 15 m

Current weather observation

The report was made 56 minutes ago, at 13:00 UTC
Wind 12 kt from the West/Northwest
Temperature 29°C
Humidity 55%
Pressure 1006 hPa
Visibility: 8000 m
Scattered clouds at a height of 4000 ft

METAR: OEJN 241300Z 29012KT 8000 SCT040 29/19 Q1006 NOSIG

Time: 16:56 (13:56 UTC)

Forecast

The report was made 2 hours and 56 minutes ago, at 11:00 UTC
Forecast valid from 24 at 12 UTC to 25 at 18 UTC
Wind 15 kt from the Northwest
Visibility: 6000 m
Scattered clouds at a height of 4000 ft
Scattered clouds at a height of 10000 ft
Temporary
from 24 at 12 UTC to 24 at 16 UTC
Visibility: 4000 m
Becoming
from 24 at 18 UTC to 24 at 20 UTC
Wind 6 kt from the North/Northeast

TAF: OEJN 241100Z 2412/2518 32015KT 6000 SCT040 SCT100 TEMPO 2412/2416 4000 DU/BLDU BECMG 2418/2420 02006KT

Weather observations and forecasts of more than 4000 airports (METAR and TAF reports).

The available stations are represented by yellow and red dots on the map.

Hover mouse over dot to see the name of the station.

Then click to see weather observations and forecasts.

To change the map : click on the green buttons with a black cross to zoom in, on the green button with a dash to zoom out, or on the green arrows for adjacent maps.


METAR-TAF: